createdAt,value
2022-08-17T00:00:33.219Z,55.20
2022-08-17T00:03:03.089Z,55.60
2022-08-17T00:05:34.500Z,46.30
2022-08-17T00:08:02.181Z,46.87
2022-08-17T00:10:29.946Z,52.87
2022-08-17T00:13:00.410Z,56.73
2022-08-17T00:15:28.128Z,57.10
2022-08-17T00:17:55.721Z,56.00
2022-08-17T00:20:23.362Z,47.87
2022-08-17T00:23:09.057Z,50.67
2022-08-17T00:25:36.756Z,51.57
2022-08-17T00:28:04.894Z,53.10
2022-08-17T00:30:50.816Z,49.70
2022-08-17T00:33:23.762Z,55.47
2022-08-17T00:35:51.785Z,56.93
2022-08-17T00:38:21.308Z,56.27
2022-08-17T00:40:51.981Z,46.40
2022-08-17T00:43:29.642Z,55.33
2022-08-17T00:45:58.246Z,50.80
2022-08-17T00:48:29.067Z,56.10
2022-08-17T00:51:02.360Z,51.90
2022-08-17T00:53:33.931Z,45.90
2022-08-17T00:56:04.480Z,43.83
2022-08-17T00:58:36.209Z,48.13
2022-08-17T01:01:05.314Z,54.30
2022-08-17T01:03:34.221Z,53.77
2022-08-17T01:06:04.520Z,54.43
2022-08-17T01:08:34.278Z,62.27
2022-08-17T01:11:03.074Z,57.30
2022-08-17T01:13:38.148Z,53.33
2022-08-17T01:16:16.959Z,57.53
2022-08-17T01:18:46.715Z,56.50
2022-08-17T01:21:21.813Z,64.77
2022-08-17T01:23:50.857Z,53.20
2022-08-17T01:26:19.037Z,55.77
2022-08-17T01:28:54.309Z,51.00
2022-08-17T01:31:24.788Z,47.67
2022-08-17T01:33:53.248Z,49.93
2022-08-17T01:36:20.902Z,43.43
2022-08-17T01:38:49.869Z,38.00
2022-08-17T01:41:17.964Z,39.67
2022-08-17T01:43:48.828Z,47.63
2022-08-17T01:46:21.033Z,40.97
2022-08-17T01:48:51.078Z,38.80
2022-08-17T01:51:19.120Z,38.73
2022-08-17T01:53:51.353Z,42.97
2022-08-17T01:56:23.413Z,42.80
2022-08-17T01:58:51.778Z,44.43
2022-08-17T02:01:22.200Z,47.47
2022-08-17T02:03:54.532Z,47.60
2022-08-17T02:06:30.171Z,45.40
2022-08-17T02:09:02.977Z,47.60
2022-08-17T02:11:33.147Z,45.07
2022-08-17T02:14:03.443Z,39.37
2022-08-17T02:16:36.862Z,44.90
2022-08-17T02:19:06.482Z,42.00
2022-08-17T02:21:34.170Z,41.20
2022-08-17T02:24:03.956Z,41.67
2022-08-17T02:26:31.623Z,43.37
2022-08-17T02:28:59.250Z,56.93
2022-08-17T02:31:26.821Z,59.63
2022-08-17T02:34:00.403Z,43.33
2022-08-17T02:36:33.097Z,53.73
2022-08-17T02:39:01.436Z,49.13
2022-08-17T02:41:30.457Z,49.20
2022-08-17T02:43:58.548Z,46.90
2022-08-17T02:46:26.521Z,45.30
2022-08-17T02:48:54.122Z,45.87
2022-08-17T02:51:21.707Z,52.30
2022-08-17T02:53:49.293Z,53.97
2022-08-17T02:56:17.120Z,42.90
2022-08-17T02:58:46.280Z,47.47
2022-08-17T03:01:14.432Z,46.57
2022-08-17T03:03:42.096Z,46.77
2022-08-17T03:06:10.322Z,46.30
2022-08-17T03:08:38.445Z,49.67
2022-08-17T03:11:06.027Z,47.23
2022-08-17T03:13:33.950Z,53.90
2022-08-17T03:16:03.067Z,49.93
2022-08-17T03:18:30.645Z,45.90
2022-08-17T03:21:00.533Z,47.53
2022-08-17T03:23:30.316Z,48.73
2022-08-17T03:25:58.918Z,43.20
2022-08-17T03:28:28.154Z,48.47
2022-08-17T03:30:55.905Z,47.00
2022-08-17T03:33:24.862Z,42.63
2022-08-17T03:35:52.518Z,50.10
2022-08-17T03:38:20.190Z,44.57
2022-08-17T03:40:56.389Z,39.43
2022-08-17T03:43:28.603Z,37.97
2022-08-17T03:46:28.340Z,41.50
2022-08-17T03:49:21.185Z,38.47
2022-08-17T03:52:06.269Z,39.47
2022-08-17T03:54:51.561Z,35.43
2022-08-17T03:57:19.493Z,40.30
2022-08-17T03:59:48.394Z,41.83
2022-08-17T04:02:20.994Z,44.43
2022-08-17T04:04:51.293Z,40.30
2022-08-17T04:07:19.617Z,47.23
2022-08-17T04:09:47.284Z,41.93
2022-08-17T04:12:16.415Z,45.27
2022-08-17T04:14:53.270Z,42.40
2022-08-17T04:17:22.621Z,37.60
2022-08-17T04:19:51.569Z,42.63
2022-08-17T04:22:32.656Z,45.27
2022-08-17T04:25:02.484Z,40.17
2022-08-17T04:27:30.048Z,40.97
2022-08-17T04:29:58.425Z,46.50
2022-08-17T04:33:03.813Z,47.77
2022-08-17T04:35:19.189Z,48.63
2022-08-17T04:37:47.309Z,50.60
2022-08-17T04:40:32.714Z,45.77
2022-08-17T04:43:05.685Z,43.93
2022-08-17T04:45:33.283Z,43.03
2022-08-17T04:48:01.391Z,53.20
2022-08-17T04:50:30.380Z,50.90
2022-08-17T04:52:58.333Z,45.80
2022-08-17T04:55:26.196Z,46.03
2022-08-17T04:57:53.997Z,43.93
2022-08-17T05:00:22.370Z,60.00
2022-08-17T05:02:52.497Z,51.53
2022-08-17T05:05:21.791Z,57.53
2022-08-17T05:07:52.574Z,42.37
2022-08-17T05:10:20.789Z,41.67
2022-08-17T05:12:48.904Z,39.70
2022-08-17T05:15:16.693Z,36.63
2022-08-17T05:17:44.863Z,39.03
2022-08-17T05:20:12.675Z,37.40
2022-08-17T05:22:51.219Z,43.67
2022-08-17T05:25:25.590Z,39.37
2022-08-17T05:27:54.162Z,40.80
2022-08-17T05:30:22.973Z,40.77
2022-08-17T05:32:55.324Z,38.97
2022-08-17T05:35:24.128Z,32.50
2022-08-17T05:37:53.464Z,37.63
2022-08-17T05:40:26.037Z,40.90
2022-08-17T05:43:05.289Z,42.90
2022-08-17T05:45:46.089Z,39.13
2022-08-17T05:48:21.469Z,30.93
2022-08-17T05:51:16.310Z,32.90
2022-08-17T05:53:53.842Z,48.43
2022-08-17T05:56:33.646Z,25.50
2022-08-17T05:59:10.205Z,28.50
2022-08-17T06:01:47.524Z,27.50
2022-08-17T06:04:19.947Z,31.57
2022-08-17T06:06:56.762Z,26.43
2022-08-17T06:09:39.973Z,22.80
2022-08-17T06:12:24.965Z,28.00
2022-08-17T06:15:04.726Z,28.37
2022-08-17T06:17:33.070Z,25.17
2022-08-17T06:20:04.361Z,24.53
2022-08-17T06:22:35.917Z,25.50
2022-08-17T06:25:13.849Z,24.30
2022-08-17T06:27:44.714Z,25.63
2022-08-17T06:30:15.110Z,21.20
2022-08-17T06:32:45.550Z,22.67
2022-08-17T06:35:16.393Z,23.53
2022-08-17T06:38:04.950Z,21.30
2022-08-17T06:41:01.473Z,23.83
2022-08-17T06:43:47.940Z,23.87
2022-08-17T06:46:22.581Z,22.47
2022-08-17T06:49:00.849Z,25.10
2022-08-17T06:51:33.866Z,24.73
2022-08-17T06:54:08.740Z,25.83
2022-08-17T06:56:52.931Z,26.17
2022-08-17T06:59:26.329Z,28.23
2022-08-17T07:02:06.241Z,25.90
2022-08-17T07:04:36.633Z,28.13
2022-08-17T07:07:22.238Z,27.70
2022-08-17T07:09:52.793Z,28.43
2022-08-17T07:12:26.165Z,26.87
2022-08-17T07:15:00.385Z,29.10
2022-08-17T07:17:46.589Z,27.70
2022-08-17T07:20:17.584Z,27.57
2022-08-17T07:22:59.787Z,30.50
2022-08-17T07:25:30.573Z,34.60
2022-08-17T07:28:02.359Z,33.07
2022-08-17T07:30:45.589Z,33.07
2022-08-17T07:33:20.108Z,35.27
2022-08-17T07:35:49.799Z,35.57
2022-08-17T07:38:25.349Z,34.23
2022-08-17T07:41:03.330Z,39.17
2022-08-17T07:43:34.970Z,38.70
2022-08-17T07:46:35.299Z,41.13
2022-08-17T07:49:24.414Z,35.93
2022-08-17T07:52:47.852Z,39.73
2022-08-17T07:54:49.468Z,37.50
2022-08-17T07:57:34.073Z,36.13
2022-08-17T08:00:27.975Z,35.87
2022-08-17T08:03:05.301Z,35.13
2022-08-17T08:05:50.286Z,35.10
2022-08-17T08:08:27.945Z,34.07
2022-08-17T08:11:05.446Z,32.80
2022-08-17T08:13:34.429Z,33.50
2022-08-17T08:16:30.262Z,34.27
2022-08-17T08:19:00.260Z,31.50
2022-08-17T08:21:37.637Z,34.17
2022-08-17T08:24:20.790Z,33.37
2022-08-17T08:26:57.619Z,31.70
2022-08-17T08:29:32.258Z,35.30
2022-08-17T08:32:07.972Z,34.33
2022-08-17T08:35:02.246Z,33.57
2022-08-17T08:37:42.918Z,32.90
2022-08-17T08:40:27.251Z,36.00
2022-08-17T08:43:08.170Z,31.90
2022-08-17T08:45:43.348Z,32.27
2022-08-17T08:48:52.977Z,31.03
2022-08-17T08:51:27.631Z,31.27
2022-08-17T08:54:03.302Z,29.40
2022-08-17T08:56:38.229Z,31.47
2022-08-17T08:59:18.942Z,31.93
2022-08-17T09:01:56.913Z,29.97
2022-08-17T09:05:10.393Z,31.47
2022-08-17T09:07:40.049Z,31.57
2022-08-17T09:10:15.702Z,29.23
2022-08-17T09:12:53.279Z,25.47
2022-08-17T09:15:25.604Z,24.27
2022-08-17T09:18:58.917Z,26.20
2022-08-17T09:20:56.325Z,23.83
2022-08-17T09:23:33.661Z,25.97
2022-08-17T09:26:07.723Z,21.90
2022-08-17T09:28:37.828Z,23.20
2022-08-17T09:31:10.435Z,23.33
2022-08-17T09:33:44.198Z,24.97
2022-08-17T09:36:19.634Z,25.10
2022-08-17T09:38:57.469Z,23.33
2022-08-17T09:41:32.331Z,25.23
2022-08-17T09:44:10.773Z,25.00
2022-08-17T09:46:56.857Z,25.63
2022-08-17T09:49:31.362Z,25.30
2022-08-17T09:52:08.914Z,24.27
2022-08-17T09:54:40.779Z,26.53
2022-08-17T09:57:31.829Z,23.17
2022-08-17T10:00:16.777Z,23.80
2022-08-17T10:03:04.730Z,24.50
2022-08-17T10:05:38.469Z,26.97
2022-08-17T10:08:17.970Z,23.20
2022-08-17T10:11:00.083Z,22.83
2022-08-17T10:13:36.333Z,22.13
2022-08-17T10:16:12.827Z,21.23
2022-08-17T10:18:52.754Z,23.33
2022-08-17T10:21:38.285Z,21.70
2022-08-17T10:24:29.818Z,22.07
2022-08-17T10:27:01.108Z,22.40
2022-08-17T10:29:44.162Z,20.83
2022-08-17T10:32:26.321Z,22.53
2022-08-17T10:35:19.590Z,24.23
2022-08-17T10:38:00.221Z,23.60
2022-08-17T10:40:38.002Z,22.37
2022-08-17T10:43:20.713Z,20.70
2022-08-17T10:46:10.692Z,22.07
2022-08-17T10:48:42.470Z,20.10
2022-08-17T10:51:12.710Z,21.50
2022-08-17T10:53:58.816Z,22.90
2022-08-17T10:56:45.187Z,20.30
2022-08-17T10:59:55.205Z,19.40
2022-08-17T11:02:27.916Z,20.30
2022-08-17T11:05:10.100Z,20.63
2022-08-17T11:07:52.254Z,21.20
2022-08-17T11:10:49.917Z,18.20
2022-08-17T11:13:31.933Z,18.80
2022-08-17T11:16:18.693Z,17.80
2022-08-17T11:19:09.811Z,17.40
2022-08-17T11:22:06.209Z,18.67
2022-08-17T11:24:36.472Z,17.60
2022-08-17T11:27:24.366Z,19.00
2022-08-17T11:30:00.947Z,19.67
2022-08-17T11:32:47.661Z,21.40
2022-08-17T11:35:33.128Z,17.70
2022-08-17T11:38:16.407Z,20.30
2022-08-17T11:41:04.069Z,19.17
2022-08-17T11:43:56.232Z,19.80
2022-08-17T11:46:51.660Z,20.80
2022-08-17T11:49:47.712Z,21.77
2022-08-17T11:52:39.259Z,22.50
2022-08-17T11:55:33.907Z,18.73
2022-08-17T11:58:01.640Z,18.03
2022-08-17T12:00:51.816Z,15.63
2022-08-17T12:03:23.454Z,14.47
2022-08-17T12:05:53.543Z,14.70
2022-08-17T12:08:23.333Z,14.10
2022-08-17T12:11:01.087Z,12.67
2022-08-17T12:13:39.381Z,14.13
2022-08-17T12:16:09.856Z,13.63
2022-08-17T12:18:41.927Z,13.00
2022-08-17T12:21:37.281Z,13.67
2022-08-17T12:24:15.330Z,11.37
2022-08-17T12:26:45.138Z,14.50
2022-08-17T12:29:18.291Z,11.73
2022-08-17T12:32:04.761Z,12.83
2022-08-17T12:34:37.429Z,12.07
2022-08-17T12:37:07.781Z,12.10
2022-08-17T12:39:40.365Z,11.70
2022-08-17T12:42:23.434Z,12.03
2022-08-17T12:44:51.073Z,12.70
2022-08-17T12:47:22.608Z,11.20
2022-08-17T12:49:52.425Z,11.80
2022-08-17T12:52:24.946Z,11.40
2022-08-17T12:54:58.205Z,10.77
2022-08-17T12:57:29.858Z,10.10
2022-08-17T13:00:00.784Z,10.70
2022-08-17T13:02:40.045Z,10.00
2022-08-17T13:05:17.237Z,10.47
2022-08-17T13:07:46.563Z,10.00
2022-08-17T13:10:21.357Z,9.90
2022-08-17T13:12:50.903Z,9.10
2022-08-17T13:15:26.102Z,12.13
2022-08-17T13:18:01.786Z,9.93
2022-08-17T13:20:30.042Z,9.60
2022-08-17T13:23:00.965Z,10.30
2022-08-17T13:25:31.993Z,9.40
2022-08-17T13:28:00.104Z,9.30
2022-08-17T13:30:33.106Z,8.73
2022-08-17T13:33:04.973Z,9.23
2022-08-17T13:35:49.318Z,8.97
2022-08-17T13:38:36.456Z,9.57
2022-08-17T13:41:07.397Z,8.90
2022-08-17T13:43:45.496Z,9.70
2022-08-17T13:46:20.254Z,9.73
2022-08-17T13:48:58.220Z,10.40
2022-08-17T13:51:35.311Z,9.43
2022-08-17T13:54:19.891Z,9.10
2022-08-17T13:56:55.592Z,9.57
2022-08-17T13:59:53.361Z,8.87
2022-08-17T14:02:21.481Z,9.73
2022-08-17T14:04:50.177Z,8.07
2022-08-17T14:07:37.740Z,8.83
2022-08-17T14:10:11.901Z,8.23
2022-08-17T14:12:44.555Z,8.30
2022-08-17T14:15:14.034Z,7.90
2022-08-17T14:17:41.762Z,8.67
2022-08-17T14:20:12.825Z,8.43
2022-08-17T14:22:44.200Z,8.93
2022-08-17T14:25:13.547Z,8.40
2022-08-17T14:27:51.829Z,8.50
2022-08-17T14:30:21.885Z,8.57
2022-08-17T14:32:51.622Z,8.10
2022-08-17T14:35:21.899Z,7.60
2022-08-17T14:37:49.923Z,8.00
2022-08-17T14:40:20.600Z,8.20
2022-08-17T14:42:49.945Z,7.53
2022-08-17T14:45:29.862Z,7.40
2022-08-17T14:48:00.157Z,8.60
2022-08-17T14:50:27.739Z,8.20
2022-08-17T14:52:56.238Z,8.33
2022-08-17T14:55:26.038Z,8.23
2022-08-17T14:57:54.924Z,7.70
2022-08-17T15:00:22.490Z,7.60
2022-08-17T15:02:53.848Z,7.87
2022-08-17T15:05:24.485Z,8.03
2022-08-17T15:07:53.284Z,8.00
2022-08-17T15:10:21.914Z,8.10
2022-08-17T15:12:49.725Z,8.43
2022-08-17T15:15:18.774Z,8.57
2022-08-17T15:17:46.406Z,7.77
2022-08-17T15:20:16.713Z,7.30
2022-08-17T15:22:45.746Z,7.27
2022-08-17T15:25:14.677Z,6.80
2022-08-17T15:27:43.058Z,7.27
2022-08-17T15:30:11.844Z,7.50
2022-08-17T15:32:50.995Z,7.70
2022-08-17T15:35:27.062Z,6.93
2022-08-17T15:37:56.365Z,6.83
2022-08-17T15:40:24.979Z,7.20
2022-08-17T15:42:52.689Z,7.20
2022-08-17T15:45:26.876Z,7.67
2022-08-17T15:47:55.891Z,6.70
2022-08-17T15:50:23.454Z,6.87
2022-08-17T15:52:56.633Z,5.70
2022-08-17T15:55:24.768Z,7.13
2022-08-17T15:57:53.076Z,5.87
2022-08-17T16:00:23.565Z,5.50
2022-08-17T16:03:15.987Z,6.17
2022-08-17T16:05:41.345Z,5.87
2022-08-17T16:08:10.863Z,5.70
2022-08-17T16:10:38.501Z,5.90
2022-08-17T16:13:06.155Z,5.97
2022-08-17T16:15:48.680Z,6.73
2022-08-17T16:18:25.729Z,5.30
2022-08-17T16:20:55.020Z,5.10
2022-08-17T16:23:22.796Z,5.00
2022-08-17T16:25:53.738Z,5.80
2022-08-17T16:28:36.008Z,6.13
2022-08-17T16:31:05.842Z,6.50
2022-08-17T16:33:37.517Z,6.17
2022-08-17T16:36:07.969Z,6.10
2022-08-17T16:38:36.138Z,6.50
2022-08-17T16:41:04.156Z,6.43
2022-08-17T16:43:31.772Z,7.17
2022-08-17T16:46:00.710Z,6.90
2022-08-17T16:48:28.684Z,7.33
2022-08-17T16:51:03.150Z,6.60
2022-08-17T16:53:33.500Z,7.07
2022-08-17T16:56:01.075Z,7.50
2022-08-17T16:58:29.041Z,6.70
2022-08-17T17:00:59.608Z,6.57
2022-08-17T17:03:30.127Z,6.63
2022-08-17T17:06:07.222Z,6.93
2022-08-17T17:08:44.062Z,5.80
2022-08-17T17:11:15.347Z,5.80
2022-08-17T17:13:50.145Z,5.80
2022-08-17T17:16:23.945Z,6.10
2022-08-17T17:19:08.609Z,5.87
2022-08-17T17:21:44.683Z,6.50
2022-08-17T17:24:17.961Z,7.30
2022-08-17T17:27:07.008Z,6.20
2022-08-17T17:29:47.955Z,6.33
2022-08-17T17:32:21.786Z,6.03
2022-08-17T17:34:54.616Z,7.83
2022-08-17T17:37:28.279Z,8.10
2022-08-17T17:40:02.945Z,6.57
2022-08-17T17:42:32.963Z,7.70
2022-08-17T17:45:07.850Z,8.00
2022-08-17T17:47:35.957Z,8.03
2022-08-17T17:50:06.325Z,8.00
2022-08-17T17:52:42.237Z,7.07
2022-08-17T17:55:32.764Z,7.87
2022-08-17T17:58:10.478Z,8.67
2022-08-17T18:00:44.206Z,8.73
2022-08-17T18:03:26.837Z,8.20
2022-08-17T18:06:14.969Z,9.80
2022-08-17T18:09:18.119Z,8.50
2022-08-17T18:12:10.788Z,8.50
2022-08-17T18:15:01.461Z,9.57
2022-08-17T18:17:29.887Z,10.63
2022-08-17T18:19:58.269Z,11.07
2022-08-17T18:22:27.729Z,10.80
2022-08-17T18:24:57.238Z,11.70
2022-08-17T18:27:34.122Z,12.63
2022-08-17T18:30:09.065Z,11.77
2022-08-17T18:32:39.938Z,13.20
2022-08-17T18:35:32.745Z,11.57
2022-08-17T18:38:22.449Z,11.90
2022-08-17T18:41:01.298Z,12.40
2022-08-17T18:43:44.171Z,14.27
2022-08-17T18:46:29.877Z,14.50
2022-08-17T18:49:00.495Z,15.77
2022-08-17T18:51:42.358Z,16.97
2022-08-17T18:54:20.231Z,16.80
2022-08-17T18:56:53.692Z,14.57
2022-08-17T18:59:30.522Z,16.27
2022-08-17T19:05:09.727Z,15.80
2022-08-17T19:07:40.401Z,15.93
2022-08-17T19:10:18.330Z,15.07
2022-08-17T19:12:51.202Z,15.13
2022-08-17T19:15:28.421Z,16.57
2022-08-17T19:18:01.601Z,16.00
2022-08-17T19:20:33.134Z,14.93
2022-08-17T19:23:07.930Z,15.63
2022-08-17T19:25:41.809Z,14.57
2022-08-17T19:28:22.494Z,15.00
2022-08-17T19:30:56.465Z,15.60
2022-08-17T19:33:26.118Z,14.60
2022-08-17T19:36:01.999Z,15.00
2022-08-17T19:38:42.202Z,15.17
2022-08-17T19:41:20.687Z,14.10
2022-08-17T19:44:01.706Z,15.17
2022-08-17T19:46:36.321Z,14.47
2022-08-17T19:49:14.530Z,12.40
2022-08-17T19:51:52.262Z,12.83
2022-08-17T19:54:26.939Z,13.87
2022-08-17T19:57:03.096Z,13.13
2022-08-17T19:59:49.359Z,12.53
2022-08-17T20:02:28.258Z,13.20
2022-08-17T20:05:00.058Z,12.30
2022-08-17T20:07:38.186Z,12.33
2022-08-17T20:10:08.850Z,13.23
2022-08-17T20:12:39.429Z,13.23
2022-08-17T20:15:10.999Z,12.30
2022-08-17T20:17:44.338Z,12.63
2022-08-17T20:20:23.257Z,13.00
2022-08-17T20:22:55.601Z,12.43
2022-08-17T20:25:31.337Z,13.83
2022-08-17T20:28:06.174Z,13.57
2022-08-17T20:30:38.342Z,12.90
2022-08-17T20:33:22.310Z,13.87
2022-08-17T20:36:04.300Z,16.07
2022-08-17T20:38:42.321Z,16.70
2022-08-17T20:41:16.666Z,16.30
2022-08-17T20:43:51.046Z,16.60
2022-08-17T20:47:06.366Z,20.13
2022-08-17T20:49:48.813Z,21.47
2022-08-17T20:52:37.165Z,21.90
2022-08-17T20:55:05.811Z,20.93
2022-08-17T20:57:48.876Z,19.90
2022-08-17T21:00:45.850Z,22.50
2022-08-17T21:03:51.145Z,22.90
2022-08-17T21:06:23.708Z,22.17
2022-08-17T21:08:57.582Z,25.13
2022-08-17T21:12:02.910Z,24.90
2022-08-17T21:14:44.900Z,25.57
2022-08-17T21:17:29.442Z,25.30
2022-08-17T21:20:12.583Z,26.53
2022-08-17T21:22:53.454Z,27.27
2022-08-17T21:25:44.842Z,26.57
2022-08-17T21:28:23.059Z,26.33
2022-08-17T21:31:01.080Z,18.40
2022-08-17T21:33:31.497Z,16.47
2022-08-17T21:36:25.658Z,20.30
2022-08-17T21:39:02.076Z,19.13
2022-08-17T21:41:36.419Z,16.33
2022-08-17T21:44:11.921Z,13.87
2022-08-17T21:46:42.912Z,12.90
2022-08-17T21:49:17.754Z,13.60
2022-08-17T21:51:49.829Z,14.87
2022-08-17T21:54:31.260Z,12.40
2022-08-17T21:57:02.153Z,11.10
2022-08-17T21:59:32.868Z,10.40
2022-08-17T22:02:01.910Z,12.13
2022-08-17T22:04:32.022Z,13.83
2022-08-17T22:07:01.101Z,13.07
2022-08-17T22:09:32.502Z,15.03
2022-08-17T22:12:03.440Z,13.57
2022-08-17T22:14:53.119Z,14.03
2022-08-17T22:17:23.961Z,16.17
2022-08-17T22:19:54.795Z,15.40
2022-08-17T22:22:27.337Z,14.50
2022-08-17T22:24:58.590Z,13.60
2022-08-17T22:27:52.564Z,14.20
2022-08-17T22:30:28.797Z,13.70
2022-08-17T22:32:56.798Z,15.37
2022-08-17T22:35:37.354Z,14.20
2022-08-17T22:38:27.768Z,14.77
2022-08-17T22:41:13.657Z,14.00
2022-08-17T22:43:44.664Z,13.13
2022-08-17T22:46:14.876Z,13.27
2022-08-17T22:48:48.902Z,12.67
2022-08-17T22:51:21.642Z,10.73
2022-08-17T22:54:09.167Z,11.70
2022-08-17T22:56:56.155Z,10.30
2022-08-17T22:59:46.505Z,10.70
2022-08-17T23:02:20.660Z,9.60
2022-08-17T23:04:51.576Z,9.50
2022-08-17T23:07:19.690Z,11.07
2022-08-17T23:09:47.620Z,10.53
2022-08-17T23:12:21.978Z,10.90
2022-08-17T23:14:51.392Z,9.70
2022-08-17T23:17:19.078Z,9.30
2022-08-17T23:19:46.675Z,9.73
2022-08-17T23:22:14.285Z,10.07
2022-08-17T23:24:48.868Z,10.37
2022-08-17T23:27:19.130Z,10.47
2022-08-17T23:29:48.601Z,9.43
2022-08-17T23:32:18.673Z,10.30
2022-08-17T23:34:48.105Z,8.90
2022-08-17T23:37:16.726Z,8.30
2022-08-17T23:39:45.600Z,7.50
2022-08-17T23:42:21.534Z,7.60
2022-08-17T23:44:49.676Z,6.83
2022-08-17T23:47:17.852Z,6.60
2022-08-17T23:49:45.680Z,7.37
2022-08-17T23:52:16.622Z,6.60
2022-08-17T23:54:46.794Z,5.83
2022-08-17T23:57:16.945Z,6.30
2022-08-17T23:59:46.118Z,6.53
